createdAt,value
2018-04-17T00:00:23.562Z,100.0
2018-04-17T00:01:24.218Z,100.0
2018-04-17T00:02:24.876Z,100.0
2018-04-17T00:03:25.533Z,100.0
2018-04-17T00:04:26.190Z,100.0
2018-04-17T00:05:26.850Z,100.0
2018-04-17T00:06:27.506Z,100.0
2018-04-17T00:07:28.164Z,100.0
2018-04-17T00:08:28.822Z,100.0
2018-04-17T00:09:29.477Z,100.0
2018-04-17T00:10:30.139Z,100.0
2018-04-17T00:11:30.793Z,100.0
2018-04-17T00:12:31.450Z,100.0
2018-04-17T00:13:32.108Z,100.0
2018-04-17T00:14:32.765Z,100.0
2018-04-17T00:15:33.424Z,100.0
2018-04-17T00:16:34.080Z,100.0
2018-04-17T00:17:34.740Z,100.0
2018-04-17T00:18:35.393Z,100.0
2018-04-17T00:19:36.051Z,100.0
2018-04-17T00:20:36.710Z,100.0
2018-04-17T00:21:37.367Z,100.0
2018-04-17T00:22:38.023Z,100.0
2018-04-17T00:23:38.731Z,100.0
2018-04-17T00:24:39.426Z,100.0
2018-04-17T00:25:40.084Z,100.0
2018-04-17T00:26:40.738Z,100.0
2018-04-17T00:27:41.396Z,100.0
2018-04-17T00:28:42.090Z,100.0
2018-04-17T00:29:42.749Z,100.0
2018-04-17T00:30:43.408Z,100.0
2018-04-17T00:31:44.064Z,100.0
2018-04-17T00:32:44.724Z,100.0
2018-04-17T00:33:45.378Z,100.0
2018-04-17T00:34:46.036Z,100.0
2018-04-17T00:35:46.694Z,100.0
2018-04-17T00:36:47.350Z,100.0
2018-04-17T00:37:48.046Z,100.0
2018-04-17T00:38:48.753Z,100.0
2018-04-17T00:39:49.409Z,100.0
2018-04-17T00:40:50.066Z,100.0
2018-04-17T00:41:50.722Z,100.0
2018-04-17T00:42:51.379Z,100.0
2018-04-17T00:43:52.039Z,100.0
2018-04-17T00:44:52.696Z,100.0
2018-04-17T00:45:53.355Z,100.0
2018-04-17T00:46:54.013Z,100.0
2018-04-17T00:47:54.673Z,100.0
2018-04-17T00:48:55.330Z,100.0
2018-04-17T00:49:55.987Z,100.0
2018-04-17T00:50:56.647Z,100.0
2018-04-17T00:51:57.306Z,100.0
2018-04-17T00:52:57.964Z,100.0
2018-04-17T00:53:58.671Z,100.0
2018-04-17T00:54:59.329Z,100.0
2018-04-17T00:55:59.988Z,100.0
2018-04-17T00:57:00.644Z,100.0
2018-04-17T00:58:01.304Z,100.0
2018-04-17T00:59:01.963Z,100.0
2018-04-17T01:00:02.631Z,100.0
2018-04-17T01:01:03.280Z,100.0
2018-04-17T01:02:03.939Z,100.0
2018-04-17T01:03:04.597Z,100.0
2018-04-17T01:04:05.260Z,100.0
2018-04-17T01:05:05.916Z,100.0
2018-04-17T01:06:06.579Z,100.0
2018-04-17T01:07:07.232Z,100.0
2018-04-17T01:08:07.891Z,100.0
2018-04-17T01:09:08.636Z,100.0
2018-04-17T01:10:09.295Z,100.0
2018-04-17T01:11:09.953Z,100.0
2018-04-17T01:12:10.611Z,100.0
2018-04-17T01:13:11.268Z,100.0
2018-04-17T01:14:11.927Z,100.0
2018-04-17T01:15:12.584Z,100.0
2018-04-17T01:16:13.242Z,100.0
2018-04-17T01:17:13.902Z,100.0
2018-04-17T01:18:14.559Z,100.0
2018-04-17T01:19:15.219Z,100.0
2018-04-17T01:20:15.876Z,100.0
2018-04-17T01:21:16.533Z,100.0
2018-04-17T01:22:17.192Z,100.0
2018-04-17T01:23:17.848Z,100.0
2018-04-17T01:24:18.505Z,100.0
2018-04-17T01:25:19.164Z,100.0
2018-04-17T01:26:19.825Z,100.0
2018-04-17T01:27:20.478Z,100.0
2018-04-17T01:28:21.137Z,100.0
2018-04-17T01:29:21.794Z,100.0
2018-04-17T01:30:22.451Z,100.0
2018-04-17T01:31:23.110Z,100.0
2018-04-17T01:32:23.766Z,100.0
2018-04-17T01:33:24.425Z,100.0
2018-04-17T01:34:25.085Z,100.0
2018-04-17T01:35:25.777Z,100.0
2018-04-17T01:36:26.437Z,100.0
2018-04-17T01:37:27.093Z,100.0
2018-04-17T01:38:27.755Z,100.0
2018-04-17T01:39:28.410Z,100.0
2018-04-17T01:40:29.067Z,100.0
2018-04-17T01:41:29.726Z,100.0
2018-04-17T01:42:30.429Z,100.0
2018-04-17T01:43:31.082Z,100.0
2018-04-17T01:44:31.775Z,100.0
2018-04-17T01:45:32.431Z,100.0
2018-04-17T01:46:33.092Z,100.0
2018-04-17T01:47:33.746Z,100.0
2018-04-17T01:48:34.405Z,100.0
2018-04-17T01:49:35.153Z,100.0
2018-04-17T01:50:35.818Z,100.0
2018-04-17T01:51:36.507Z,100.0
2018-04-17T01:52:37.165Z,100.0
2018-04-17T01:53:37.822Z,100.0
2018-04-17T01:54:38.583Z,100.0
2018-04-17T01:55:39.240Z,100.0
2018-04-17T01:56:39.900Z,100.0
2018-04-17T01:57:40.598Z,100.0
2018-04-17T01:58:41.217Z,100.0
2018-04-17T01:59:41.924Z,100.0
2018-04-17T02:00:42.582Z,100.0
2018-04-17T02:01:43.241Z,100.0
2018-04-17T02:02:43.898Z,100.0
2018-04-17T02:03:44.557Z,100.0
2018-04-17T02:04:45.216Z,100.0
2018-04-17T02:05:45.872Z,100.0
2018-04-17T02:06:46.530Z,100.0
2018-04-17T02:07:47.188Z,100.0
2018-04-17T02:08:47.844Z,100.0
2018-04-17T02:09:48.554Z,100.0
2018-04-17T02:10:49.213Z,100.0
2018-04-17T02:11:49.872Z,100.0
2018-04-17T02:12:50.528Z,100.0
2018-04-17T02:13:51.185Z,100.0
2018-04-17T02:14:51.844Z,100.0
2018-04-17T02:15:52.500Z,100.0
2018-04-17T02:16:53.159Z,100.0
2018-04-17T02:17:53.854Z,100.0
2018-04-17T02:18:54.511Z,100.0
2018-04-17T02:19:55.168Z,100.0
2018-04-17T02:20:55.827Z,100.0
2018-04-17T02:21:56.485Z,100.0
2018-04-17T02:22:57.180Z,100.0
2018-04-17T02:23:57.837Z,100.0
2018-04-17T02:24:58.494Z,100.0
2018-04-17T02:25:59.155Z,100.0
2018-04-17T02:26:59.812Z,100.0
2018-04-17T02:28:00.466Z,100.0
2018-04-17T02:29:01.124Z,100.0
2018-04-17T02:30:01.788Z,100.0
2018-04-17T02:31:02.440Z,100.0
2018-04-17T02:32:03.102Z,100.0
2018-04-17T02:33:03.756Z,100.0
2018-04-17T02:34:04.414Z,100.0
2018-04-17T02:35:05.072Z,100.0
2018-04-17T02:36:05.728Z,100.0
2018-04-17T02:37:06.389Z,100.0
2018-04-17T02:38:07.047Z,100.0
2018-04-17T02:39:07.705Z,100.0
2018-04-17T02:40:08.364Z,100.0
2018-04-17T02:41:09.021Z,100.0
2018-04-17T02:42:09.712Z,100.0
2018-04-17T02:43:10.371Z,100.0
2018-04-17T02:44:11.029Z,100.0
2018-04-17T02:45:11.686Z,100.0
2018-04-17T02:46:12.345Z,100.0
2018-04-17T02:47:13.000Z,100.0
2018-04-17T02:48:13.658Z,100.0
2018-04-17T02:49:14.321Z,100.0
2018-04-17T02:50:14.975Z,100.0
2018-04-17T02:51:15.632Z,100.0
2018-04-17T02:52:16.287Z,100.0
2018-04-17T02:53:16.977Z,100.0
2018-04-17T02:54:17.606Z,100.0
2018-04-17T02:55:18.260Z,100.0
2018-04-17T02:56:18.918Z,100.0
2018-04-17T02:57:19.576Z,100.0
2018-04-17T02:58:20.237Z,100.0
2018-04-17T02:59:20.891Z,100.0
2018-04-17T03:00:21.548Z,100.0
2018-04-17T03:01:22.208Z,100.0
2018-04-17T03:02:22.903Z,100.0
2018-04-17T03:03:23.559Z,100.0
2018-04-17T03:04:24.216Z,100.0
2018-04-17T03:05:24.924Z,100.0
2018-04-17T03:06:25.580Z,100.0
2018-04-17T03:07:26.239Z,100.0
2018-04-17T03:08:26.896Z,100.0
2018-04-17T03:09:27.552Z,100.0
2018-04-17T03:10:28.212Z,100.0
2018-04-17T03:11:28.867Z,100.0
2018-04-17T03:12:29.526Z,100.0
2018-04-17T03:13:30.186Z,100.0
2018-04-17T03:14:30.841Z,100.0
2018-04-17T03:15:31.504Z,100.0
2018-04-17T03:16:32.157Z,100.0
2018-04-17T03:17:32.814Z,100.0
2018-04-17T03:18:33.473Z,100.0
2018-04-17T03:19:34.132Z,100.0
2018-04-17T03:20:34.840Z,100.0
2018-04-17T03:21:35.501Z,100.0
2018-04-17T03:22:36.154Z,100.0
2018-04-17T03:23:36.812Z,100.0
2018-04-17T03:24:37.469Z,100.0
2018-04-17T03:25:38.129Z,100.0
2018-04-17T03:26:38.823Z,100.0
2018-04-17T03:27:39.481Z,100.0
2018-04-17T03:28:40.139Z,100.0
2018-04-17T03:29:40.796Z,100.0
2018-04-17T03:30:41.456Z,100.0
2018-04-17T03:31:42.148Z,100.0
2018-04-17T03:32:42.770Z,100.0
2018-04-17T03:33:43.428Z,100.0
2018-04-17T03:34:44.087Z,100.0
2018-04-17T03:35:44.743Z,100.0
2018-04-17T03:36:45.402Z,100.0
2018-04-17T03:37:46.058Z,100.0
2018-04-17T03:38:46.717Z,100.0
2018-04-17T03:39:47.411Z,100.0
2018-04-17T03:40:48.069Z,100.0
2018-04-17T03:41:48.732Z,100.0
2018-04-17T03:42:49.389Z,100.0
2018-04-17T03:43:50.042Z,100.0
2018-04-17T03:44:50.698Z,100.0
2018-04-17T03:45:51.356Z,100.0
2018-04-17T03:46:52.014Z,100.0
2018-04-17T03:47:52.674Z,100.0
2018-04-17T03:48:53.330Z,100.0
2018-04-17T03:49:54.025Z,100.0
2018-04-17T03:50:54.683Z,100.0
2018-04-17T03:51:55.341Z,100.0
2018-04-17T03:52:56.005Z,100.0
2018-04-17T03:53:56.658Z,100.0
2018-04-17T03:54:57.352Z,100.0
2018-04-17T03:55:58.011Z,100.0
2018-04-17T03:56:58.668Z,100.0
2018-04-17T03:57:59.327Z,100.0
2018-04-17T03:58:59.989Z,100.0
2018-04-17T04:00:00.680Z,100.0
2018-04-17T04:01:01.338Z,100.0
2018-04-17T04:02:01.998Z,100.0
2018-04-17T04:03:02.658Z,100.0
2018-04-17T04:04:03.364Z,100.0
2018-04-17T04:05:04.012Z,100.0
2018-04-17T04:06:04.672Z,100.0
2018-04-17T04:07:05.330Z,100.0
2018-04-17T04:08:05.989Z,100.0
2018-04-17T04:09:06.649Z,100.0
2018-04-17T04:10:07.309Z,100.0
2018-04-17T04:11:07.966Z,100.0
2018-04-17T04:12:08.626Z,100.0
2018-04-17T04:13:09.298Z,100.0
2018-04-17T04:14:09.984Z,100.0
2018-04-17T04:15:10.642Z,100.0
2018-04-17T04:16:11.302Z,100.0
2018-04-17T04:17:11.957Z,100.0
2018-04-17T04:18:12.618Z,100.0
2018-04-17T04:19:13.278Z,100.0
2018-04-17T04:20:13.937Z,100.0
2018-04-17T04:21:14.597Z,100.0
2018-04-17T04:22:15.258Z,100.0
2018-04-17T04:23:15.919Z,100.0
2018-04-17T04:24:16.581Z,100.0
2018-04-17T04:25:17.241Z,100.0
2018-04-17T04:26:17.938Z,100.0
2018-04-17T04:27:18.599Z,100.0
2018-04-17T04:28:19.255Z,100.0
2018-04-17T04:29:19.916Z,100.0
2018-04-17T04:30:20.583Z,100.0
2018-04-17T04:31:21.241Z,100.0
2018-04-17T04:32:21.900Z,100.0
2018-04-17T04:33:22.562Z,100.0
2018-04-17T04:34:23.223Z,100.0
2018-04-17T04:35:23.886Z,100.0
2018-04-17T04:36:24.545Z,100.0
2018-04-17T04:37:25.206Z,100.0
2018-04-17T04:38:25.867Z,100.0
2018-04-17T04:39:26.531Z,100.0
2018-04-17T04:40:27.230Z,100.0
2018-04-17T04:41:27.892Z,100.0
2018-04-17T04:42:28.549Z,100.0
2018-04-17T04:43:29.210Z,100.0
2018-04-17T04:44:29.873Z,100.0
2018-04-17T04:45:30.534Z,100.0
2018-04-17T04:46:31.193Z,100.0
2018-04-17T04:47:31.893Z,100.0
2018-04-17T04:48:32.556Z,100.0
2018-04-17T04:49:33.256Z,100.0
2018-04-17T04:50:33.918Z,100.0
2018-04-17T04:51:34.576Z,100.0
2018-04-17T04:52:35.238Z,100.0
2018-04-17T04:53:35.901Z,100.0
2018-04-17T04:54:36.600Z,99.7
2018-04-17T04:55:37.261Z,99.5
2018-04-17T04:56:37.923Z,99.8
2018-04-17T04:57:38.630Z,99.9
2018-04-17T04:58:39.251Z,99.5
2018-04-17T04:59:39.947Z,99.5
2018-04-17T05:00:40.609Z,99.3
2018-04-17T05:01:41.270Z,99.4
2018-04-17T05:02:41.934Z,99.4
2018-04-17T05:03:42.598Z,99.4
2018-04-17T05:04:43.259Z,99.4
2018-04-17T05:05:43.917Z,99.2
2018-04-17T05:06:44.579Z,99.1
2018-04-17T05:07:45.244Z,99.2
2018-04-17T05:08:45.903Z,98.8
2018-04-17T05:09:46.564Z,98.5
2018-04-17T05:10:47.225Z,98.4
2018-04-17T05:11:47.886Z,98.4
2018-04-17T05:12:48.562Z,99.1
2018-04-17T05:13:49.208Z,98.3
2018-04-17T05:14:49.868Z,98.8
2018-04-17T05:15:50.529Z,98.1
2018-04-17T05:16:51.191Z,97.5
2018-04-17T05:17:51.853Z,96.8
2018-04-17T05:18:52.516Z,96.9
2018-04-17T05:19:53.181Z,96.6
2018-04-17T05:20:53.838Z,96.4
2018-04-17T05:21:54.499Z,96.4
2018-04-17T05:22:55.161Z,96.4
2018-04-17T05:23:55.823Z,96.2
2018-04-17T05:24:56.486Z,95.6
2018-04-17T05:25:57.147Z,95.7
2018-04-17T05:26:57.809Z,95.7
2018-04-17T05:27:58.472Z,96.4
2018-04-17T05:28:59.134Z,96.1
2018-04-17T05:29:59.795Z,95.8
2018-04-17T05:31:00.455Z,95.4
2018-04-17T05:32:01.117Z,94.6
2018-04-17T05:33:01.817Z,93.7
2018-04-17T05:34:02.480Z,93.7
2018-04-17T05:35:03.144Z,93.7
2018-04-17T05:36:03.807Z,93.6
2018-04-17T05:37:04.465Z,93.7
2018-04-17T05:38:05.168Z,93.5
2018-04-17T05:39:05.868Z,93.8
2018-04-17T05:40:06.596Z,93.7
2018-04-17T05:41:07.229Z,93.6
2018-04-17T05:42:07.891Z,93.7
2018-04-17T05:43:08.552Z,93.4
2018-04-17T05:44:09.215Z,93.8
2018-04-17T05:45:09.879Z,93.6
2018-04-17T05:46:10.542Z,93.6
2018-04-17T05:47:11.208Z,94.4
2018-04-17T05:48:11.865Z,94.8
2018-04-17T05:49:12.524Z,93.6
2018-04-17T05:50:13.211Z,92.6
2018-04-17T05:51:13.849Z,92.6
2018-04-17T05:52:14.515Z,92.8
2018-04-17T05:53:15.212Z,92.7
2018-04-17T05:54:15.875Z,92.7
2018-04-17T05:55:16.542Z,93.1
2018-04-17T05:56:17.251Z,92.7
2018-04-17T05:57:17.898Z,92.0
2018-04-17T05:58:18.566Z,91.9
2018-04-17T05:59:19.229Z,91.5
2018-04-17T06:00:19.884Z,91.0
2018-04-17T06:01:20.549Z,90.1
2018-04-17T06:02:21.209Z,89.5
2018-04-17T06:03:21.873Z,89.7
2018-04-17T06:04:22.538Z,89.8
2018-04-17T06:05:23.199Z,90.2
2018-04-17T06:06:23.861Z,90.5
2018-04-17T06:07:24.524Z,91.6
2018-04-17T06:08:25.196Z,90.8
2018-04-17T06:09:25.890Z,90.4
2018-04-17T06:10:26.554Z,90.7
2018-04-17T06:11:27.216Z,89.6
2018-04-17T06:12:27.886Z,89.1
2018-04-17T06:13:28.543Z,89.9
2018-04-17T06:14:29.210Z,89.9
2018-04-17T06:15:29.912Z,89.7
2018-04-17T06:16:30.581Z,89.2
2018-04-17T06:17:31.241Z,89.2
2018-04-17T06:18:31.904Z,88.6
2018-04-17T06:19:32.567Z,88.8
2018-04-17T06:20:33.231Z,88.2
2018-04-17T06:21:33.897Z,87.6
2018-04-17T06:22:34.596Z,87.1
2018-04-17T06:23:35.261Z,86.9
2018-04-17T06:24:35.925Z,86.4
2018-04-17T06:25:36.590Z,86.2
2018-04-17T06:26:37.254Z,85.5
2018-04-17T06:27:37.966Z,85.8
2018-04-17T06:28:38.621Z,85.4
2018-04-17T06:29:39.285Z,84.5
2018-04-17T06:30:39.952Z,84.3
2018-04-17T06:31:40.613Z,84.2
2018-04-17T06:32:41.277Z,84.2
2018-04-17T06:33:41.950Z,84.2
2018-04-17T06:34:42.644Z,83.6
2018-04-17T06:35:43.309Z,83.4
2018-04-17T06:36:43.976Z,82.4
2018-04-17T06:37:44.645Z,82.4
2018-04-17T06:38:45.346Z,81.2
2018-04-17T06:39:46.011Z,80.9
2018-04-17T06:40:46.676Z,80.5
2018-04-17T06:41:47.410Z,81.2
2018-04-17T06:42:48.043Z,80.1
2018-04-17T06:43:48.708Z,80.7
2018-04-17T06:44:49.373Z,81.6
2018-04-17T06:45:50.039Z,81.3
2018-04-17T06:46:50.702Z,81.3
2018-04-17T06:47:51.368Z,80.7
2018-04-17T06:48:52.034Z,79.8
2018-04-17T06:49:52.700Z,79.7
2018-04-17T06:50:53.365Z,79.7
2018-04-17T06:51:54.030Z,79.6
2018-04-17T06:52:54.694Z,79.6
2018-04-17T06:53:55.359Z,79.7
2018-04-17T06:54:56.024Z,79.5
2018-04-17T06:55:56.691Z,79.8
2018-04-17T06:56:57.357Z,80.2
2018-04-17T06:57:58.044Z,79.1
2018-04-17T06:58:58.691Z,78.4
2018-04-17T06:59:59.358Z,77.4
2018-04-17T07:01:00.025Z,76.5
2018-04-17T07:02:00.691Z,76.6
2018-04-17T07:03:01.357Z,76.1
2018-04-17T07:04:02.024Z,75.9
2018-04-17T07:05:02.693Z,75.9
2018-04-17T07:06:03.361Z,75.3
2018-04-17T07:07:04.029Z,75.8
2018-04-17T07:08:04.713Z,76.4
2018-04-17T07:09:05.380Z,75.9
2018-04-17T07:10:06.046Z,75.9
2018-04-17T07:11:06.711Z,76.4
2018-04-17T07:12:07.417Z,76.4
2018-04-17T07:13:08.087Z,75.9
2018-04-17T07:14:08.758Z,75.2
2018-04-17T07:15:09.426Z,74.7
2018-04-17T07:16:10.095Z,74.3
2018-04-17T07:17:10.763Z,73.7
2018-04-17T07:18:11.432Z,73.1
2018-04-17T07:19:12.138Z,72.0
2018-04-17T07:20:12.806Z,70.5
2018-04-17T07:21:13.510Z,69.8
2018-04-17T07:22:14.215Z,67.9
2018-04-17T07:23:14.884Z,66.7
2018-04-17T07:24:15.553Z,66.8
2018-04-17T07:25:16.222Z,66.5
2018-04-17T07:26:16.892Z,65.1
2018-04-17T07:27:17.597Z,63.7
2018-04-17T07:28:18.265Z,64.0
2018-04-17T07:29:18.935Z,63.0
2018-04-17T07:30:19.604Z,62.0
2018-04-17T07:31:20.274Z,63.0
2018-04-17T07:32:20.949Z,63.1
2018-04-17T07:33:21.651Z,63.4
2018-04-17T07:34:22.318Z,63.3
2018-04-17T07:35:22.986Z,63.4
2018-04-17T07:36:23.656Z,62.7
2018-04-17T07:37:24.325Z,62.0
2018-04-17T07:38:24.994Z,63.5
2018-04-17T07:39:25.671Z,64.1
2018-04-17T07:40:26.344Z,64.6
2018-04-17T07:41:27.000Z,64.2
2018-04-17T07:42:27.671Z,65.3
2018-04-17T07:43:28.395Z,65.3
2018-04-17T07:44:29.011Z,63.7
2018-04-17T07:45:29.680Z,62.7
2018-04-17T07:46:30.351Z,63.1
2018-04-17T07:47:31.024Z,61.3
2018-04-17T07:48:31.731Z,60.7
2018-04-17T07:49:32.437Z,60.8
2018-04-17T07:50:33.071Z,61.8
2018-04-17T07:51:33.775Z,61.9
2018-04-17T07:52:34.444Z,61.7
2018-04-17T07:53:35.113Z,62.2
2018-04-17T07:54:35.781Z,62.2
2018-04-17T07:55:36.450Z,61.6
2018-04-17T07:56:37.117Z,60.8
2018-04-17T07:57:37.787Z,61.7
2018-04-17T07:58:38.457Z,62.4
2018-04-17T07:59:39.182Z,61.9
2018-04-17T08:00:39.800Z,62.1
2018-04-17T08:01:40.469Z,63.7
2018-04-17T08:02:41.137Z,63.8
2018-04-17T08:03:41.808Z,65.0
2018-04-17T08:04:42.478Z,63.3
2018-04-17T08:05:43.148Z,63.6
2018-04-17T08:06:43.817Z,64.1
2018-04-17T08:07:44.487Z,63.9
2018-04-17T08:08:45.158Z,65.1
2018-04-17T08:09:45.827Z,65.0
2018-04-17T08:10:46.498Z,65.2
2018-04-17T08:11:47.212Z,64.3
2018-04-17T08:12:47.841Z,64.0
2018-04-17T08:13:48.513Z,63.3
2018-04-17T08:14:49.183Z,63.1
2018-04-17T08:15:49.853Z,61.9
2018-04-17T08:16:50.525Z,60.6
2018-04-17T08:17:51.192Z,59.8
2018-04-17T08:18:51.864Z,60.2
2018-04-17T08:19:52.537Z,59.3
2018-04-17T08:20:53.244Z,60.4
2018-04-17T08:21:53.917Z,59.4
2018-04-17T08:22:54.588Z,59.5
2018-04-17T08:23:55.296Z,60.1
2018-04-17T08:24:55.965Z,60.3
2018-04-17T08:25:56.636Z,60.6
2018-04-17T08:26:57.305Z,61.8
2018-04-17T08:27:57.991Z,61.0
2018-04-17T08:28:58.651Z,61.0
2018-04-17T08:29:59.356Z,61.0
2018-04-17T08:31:00.065Z,60.9
2018-04-17T08:32:00.734Z,61.8
2018-04-17T08:33:01.405Z,62.0
2018-04-17T08:34:02.128Z,62.7
2018-04-17T08:35:02.835Z,63.6
2018-04-17T08:36:03.506Z,64.1
2018-04-17T08:37:04.201Z,63.5
2018-04-17T08:38:04.850Z,63.8
2018-04-17T08:39:05.522Z,63.1
2018-04-17T08:40:06.194Z,61.7
2018-04-17T08:41:06.865Z,61.5
2018-04-17T08:42:07.537Z,60.3
2018-04-17T08:43:08.209Z,58.6
2018-04-17T08:44:08.881Z,58.4
2018-04-17T08:45:09.551Z,57.3
2018-04-17T08:46:10.228Z,56.1
2018-04-17T08:47:10.893Z,55.5
2018-04-17T08:48:11.564Z,54.6
2018-04-17T08:49:12.236Z,54.5
2018-04-17T08:50:12.907Z,54.1
2018-04-17T08:51:13.578Z,51.3
2018-04-17T08:52:14.249Z,50.1
2018-04-17T08:53:14.919Z,51.0
2018-04-17T08:54:15.590Z,50.7
2018-04-17T08:55:16.262Z,50.2
2018-04-17T08:56:16.991Z,50.0
2018-04-17T08:57:17.665Z,48.5
2018-04-17T08:58:18.329Z,48.4
2018-04-17T08:59:19.003Z,48.7
2018-04-17T09:00:19.675Z,48.9
2018-04-17T09:01:20.348Z,48.1
2018-04-17T09:02:21.020Z,48.4
2018-04-17T09:03:21.693Z,49.0
2018-04-17T09:04:22.367Z,48.6
2018-04-17T09:05:23.040Z,47.5
2018-04-17T09:06:23.713Z,47.7
2018-04-17T09:07:24.386Z,48.6
2018-04-17T09:08:25.057Z,48.0
2018-04-17T09:09:25.730Z,48.8
2018-04-17T09:10:26.403Z,49.5
2018-04-17T09:11:27.076Z,50.4
2018-04-17T09:12:27.749Z,49.0
2018-04-17T09:13:28.426Z,48.4
2018-04-17T09:14:29.100Z,49.2
2018-04-17T09:15:29.774Z,49.3
2018-04-17T09:16:30.449Z,48.8
2018-04-17T09:17:31.158Z,49.0
2018-04-17T09:18:31.829Z,48.6
2018-04-17T09:19:32.502Z,48.2
2018-04-17T09:20:33.173Z,47.5
2018-04-17T09:21:33.845Z,46.7
2018-04-17T09:22:34.517Z,47.2
2018-04-17T09:23:35.189Z,47.7
2018-04-17T09:24:35.873Z,47.6
2018-04-17T09:25:36.551Z,48.1
2018-04-17T09:26:37.237Z,48.7
2018-04-17T09:27:37.954Z,48.9
2018-04-17T09:28:38.591Z,49.3
2018-04-17T09:29:39.262Z,49.6
2018-04-17T09:30:39.934Z,50.1
2018-04-17T09:31:40.607Z,50.1
2018-04-17T09:32:41.279Z,50.5
2018-04-17T09:33:41.956Z,51.1
2018-04-17T09:34:42.625Z,50.4
2018-04-17T09:35:43.298Z,51.2
2018-04-17T09:36:44.008Z,52.0
2018-04-17T09:37:44.677Z,53.2
2018-04-17T09:38:45.348Z,53.6
2018-04-17T09:39:46.019Z,53.4
2018-04-17T09:40:46.692Z,53.8
2018-04-17T09:41:47.364Z,54.1
2018-04-17T09:42:48.040Z,53.6
2018-04-17T09:43:48.711Z,54.0
2018-04-17T09:44:49.468Z,54.0
2018-04-17T09:45:50.139Z,54.8
2018-04-17T09:46:50.809Z,54.6
2018-04-17T09:47:51.480Z,55.5
2018-04-17T09:48:52.150Z,55.7
2018-04-17T09:49:52.827Z,56.8
2018-04-17T09:50:53.491Z,55.9
2018-04-17T09:51:54.166Z,56.9
2018-04-17T09:52:54.833Z,56.6
2018-04-17T09:53:55.503Z,57.3
2018-04-17T09:54:56.211Z,57.3
2018-04-17T09:55:56.881Z,56.8
2018-04-17T09:56:57.551Z,56.7
2018-04-17T09:57:58.222Z,55.1
2018-04-17T09:58:58.893Z,55.3
2018-04-17T09:59:59.562Z,55.6
2018-04-17T10:01:00.270Z,56.1
2018-04-17T10:02:00.953Z,55.9
2018-04-17T10:03:01.650Z,56.9
2018-04-17T10:04:02.325Z,55.7
2018-04-17T10:05:03.029Z,56.9
2018-04-17T10:06:03.699Z,55.5
2018-04-17T10:07:04.370Z,55.0
2018-04-17T10:08:05.040Z,55.0
2018-04-17T10:09:05.738Z,55.6
2018-04-17T10:10:06.413Z,55.2
2018-04-17T10:11:07.084Z,54.7
2018-04-17T10:12:07.756Z,54.3
2018-04-17T10:13:08.429Z,54.2
2018-04-17T10:14:09.099Z,54.2
2018-04-17T10:15:09.772Z,53.4
2018-04-17T10:16:10.440Z,53.2
2018-04-17T10:17:11.140Z,52.6
2018-04-17T10:18:11.783Z,52.8
2018-04-17T10:19:12.450Z,52.6
2018-04-17T10:20:13.121Z,53.8
2018-04-17T10:21:13.797Z,54.2
2018-04-17T10:22:14.463Z,54.4
2018-04-17T10:23:15.136Z,54.1
2018-04-17T10:24:15.842Z,55.7
2018-04-17T10:25:16.511Z,56.3
2018-04-17T10:26:17.183Z,57.0
2018-04-17T10:27:17.854Z,57.2
2018-04-17T10:28:18.525Z,57.3
2018-04-17T10:29:19.197Z,57.1
2018-04-17T10:30:19.899Z,57.4
2018-04-17T10:31:20.537Z,56.6
2018-04-17T10:32:21.208Z,57.1
2018-04-17T10:33:21.915Z,56.9
2018-04-17T10:34:22.588Z,57.4
2018-04-17T10:35:23.293Z,57.8
2018-04-17T10:36:24.001Z,59.5
2018-04-17T10:37:24.671Z,60.1
2018-04-17T10:38:25.342Z,60.5
2018-04-17T10:39:26.014Z,60.8
2018-04-17T10:40:26.684Z,62.1
2018-04-17T10:41:27.355Z,61.7
2018-04-17T10:42:28.027Z,61.7
2018-04-17T10:43:28.698Z,62.4
2018-04-17T10:44:29.404Z,63.4
2018-04-17T10:45:30.071Z,63.8
2018-04-17T10:46:30.748Z,62.4
2018-04-17T10:47:31.409Z,61.6
2018-04-17T10:48:32.080Z,61.9
2018-04-17T10:49:32.749Z,63.1
2018-04-17T10:50:33.418Z,63.5
2018-04-17T10:51:34.085Z,62.3
2018-04-17T10:52:34.755Z,63.3
2018-04-17T10:53:35.424Z,65.1
2018-04-17T10:54:36.095Z,65.4
2018-04-17T10:55:36.765Z,64.1
2018-04-17T10:56:37.435Z,63.6
2018-04-17T10:57:38.104Z,64.6
2018-04-17T10:58:38.773Z,64.7
2018-04-17T10:59:39.440Z,64.1
2018-04-17T11:00:40.158Z,63.2
2018-04-17T11:01:40.849Z,63.3
2018-04-17T11:02:41.495Z,63.3
2018-04-17T11:03:42.180Z,63.7
2018-04-17T11:04:42.869Z,64.3
2018-04-17T11:05:43.538Z,63.9
2018-04-17T11:06:44.242Z,64.7
2018-04-17T11:07:44.911Z,63.8
2018-04-17T11:08:45.581Z,63.1
2018-04-17T11:09:46.249Z,63.1
2018-04-17T11:10:46.921Z,63.1
2018-04-17T11:11:47.588Z,63.6
2018-04-17T11:12:48.256Z,63.6
2018-04-17T11:13:48.923Z,62.0
2018-04-17T11:14:49.592Z,62.6
2018-04-17T11:15:50.308Z,62.5
2018-04-17T11:16:50.978Z,63.1
2018-04-17T11:17:51.682Z,63.1
2018-04-17T11:18:52.350Z,62.8
2018-04-17T11:19:53.017Z,63.6
2018-04-17T11:20:53.692Z,63.9
2018-04-17T11:21:54.353Z,64.2
2018-04-17T11:22:55.022Z,64.7
2018-04-17T11:23:55.691Z,65.4
2018-04-17T11:24:56.361Z,65.4
2018-04-17T11:25:57.028Z,65.2
2018-04-17T11:26:57.695Z,64.1
2018-04-17T11:27:58.363Z,63.7
2018-04-17T11:28:59.030Z,63.4
2018-04-17T11:29:59.699Z,63.8
2018-04-17T11:31:00.405Z,63.1
2018-04-17T11:32:01.074Z,63.1
2018-04-17T11:33:01.742Z,64.4
2018-04-17T11:34:02.410Z,63.8
2018-04-17T11:35:03.081Z,64.6
2018-04-17T11:36:03.787Z,64.8
2018-04-17T11:37:04.493Z,65.3
2018-04-17T11:38:05.161Z,65.7
2018-04-17T11:39:05.829Z,65.2
2018-04-17T11:40:06.497Z,65.0
2018-04-17T11:41:07.165Z,65.5
2018-04-17T11:42:07.834Z,64.9
2018-04-17T11:43:08.600Z,64.1
2018-04-17T11:44:09.210Z,64.1
2018-04-17T11:45:09.878Z,63.2
2018-04-17T11:46:10.596Z,62.4
2018-04-17T11:47:11.263Z,62.4
2018-04-17T11:48:11.932Z,63.8
2018-04-17T11:49:12.602Z,62.9
2018-04-17T11:50:13.270Z,62.2
2018-04-17T11:51:13.939Z,61.9
2018-04-17T11:52:14.606Z,61.0
2018-04-17T11:53:15.274Z,59.7
2018-04-17T11:54:15.941Z,59.6
2018-04-17T11:55:16.609Z,60.1
2018-04-17T11:56:17.277Z,58.2
2018-04-17T11:57:17.946Z,58.2
2018-04-17T11:58:18.614Z,58.0
2018-04-17T11:59:19.288Z,58.3
2018-04-17T12:00:19.951Z,59.3
2018-04-17T12:01:20.619Z,59.9
2018-04-17T12:02:21.321Z,60.5
2018-04-17T12:03:21.956Z,60.6
2018-04-17T12:04:22.627Z,60.9
2018-04-17T12:05:23.296Z,60.1
2018-04-17T12:06:24.000Z,59.3
2018-04-17T12:07:24.668Z,59.7
2018-04-17T12:08:25.335Z,59.9
2018-04-17T12:09:26.002Z,58.8
2018-04-17T12:10:26.671Z,59.1
2018-04-17T12:11:27.340Z,59.4
2018-04-17T12:12:28.009Z,60.1
2018-04-17T12:13:28.679Z,60.8
2018-04-17T12:14:29.354Z,59.8
2018-04-17T12:15:30.054Z,58.7
2018-04-17T12:16:30.727Z,58.0
2018-04-17T12:17:31.393Z,57.3
2018-04-17T12:18:32.063Z,56.9
2018-04-17T12:19:32.733Z,56.2
2018-04-17T12:20:33.406Z,54.4
2018-04-17T12:21:34.075Z,55.4
2018-04-17T12:22:34.744Z,55.3
2018-04-17T12:23:35.413Z,57.1
2018-04-17T12:24:36.080Z,57.2
2018-04-17T12:25:36.747Z,58.7
2018-04-17T12:26:37.464Z,59.0
2018-04-17T12:27:38.139Z,58.9
2018-04-17T12:28:38.797Z,58.7
2018-04-17T12:29:39.465Z,58.3
2018-04-17T12:30:40.136Z,57.1
2018-04-17T12:31:40.844Z,57.0
2018-04-17T12:32:41.514Z,56.8
2018-04-17T12:33:42.180Z,57.1
2018-04-17T12:34:42.849Z,57.1
2018-04-17T12:35:43.519Z,56.6
2018-04-17T12:36:44.189Z,56.5
2018-04-17T12:37:44.860Z,56.2
2018-04-17T12:38:45.530Z,56.3
2018-04-17T12:39:46.200Z,56.3
2018-04-17T12:40:46.871Z,56.0
2018-04-17T12:41:47.541Z,56.7
2018-04-17T12:42:48.211Z,55.2
2018-04-17T12:43:48.877Z,55.8
2018-04-17T12:44:49.585Z,55.3
2018-04-17T12:45:50.254Z,55.8
2018-04-17T12:46:50.923Z,56.5
2018-04-17T12:47:51.590Z,57.0
2018-04-17T12:48:52.261Z,57.0
2018-04-17T12:49:52.932Z,57.1
2018-04-17T12:50:53.636Z,57.1
2018-04-17T12:51:54.330Z,57.4
2018-04-17T12:52:54.974Z,55.4
2018-04-17T12:53:55.643Z,55.1
2018-04-17T12:54:56.314Z,55.6
2018-04-17T12:55:56.985Z,55.4
2018-04-17T12:56:57.655Z,55.4
2018-04-17T12:57:58.323Z,56.1
2018-04-17T12:58:58.990Z,56.4
2018-04-17T12:59:59.657Z,56.6
2018-04-17T13:01:00.325Z,56.8
2018-04-17T13:02:01.045Z,55.8
2018-04-17T13:03:01.716Z,55.9
2018-04-17T13:04:02.381Z,56.7
2018-04-17T13:05:03.050Z,57.9
2018-04-17T13:06:03.718Z,57.7
2018-04-17T13:07:04.387Z,57.0
2018-04-17T13:08:05.054Z,56.7
2018-04-17T13:09:05.722Z,57.1
2018-04-17T13:10:06.392Z,57.0
2018-04-17T13:11:07.061Z,57.2
2018-04-17T13:12:07.752Z,57.2
2018-04-17T13:13:08.441Z,57.2
2018-04-17T13:14:09.110Z,58.1
2018-04-17T13:15:09.779Z,57.6
2018-04-17T13:16:10.448Z,57.8
2018-04-17T13:17:11.113Z,57.1